sensor_id;sensor_type;location;lat;lon;timestamp;pressure;altitude;pressure_sealevel;temperature;humidity
59608;BME280;45426;44.726;10.390;2023-03-13T00:00:10;100777.00;;;7.26;100.00
59608;BME280;45426;44.726;10.390;2023-03-13T00:02:36;100773.59;;;6.92;100.00
59608;BME280;45426;44.726;10.390;2023-03-13T00:05:01;100775.41;;;7.25;100.00
59608;BME280;45426;44.726;10.390;2023-03-13T00:07:27;100776.69;;;7.27;100.00
59608;BME280;45426;44.726;10.390;2023-03-13T00:09:53;100777.59;;;7.36;100.00
59608;BME280;45426;44.726;10.390;2023-03-13T00:12:18;100777.03;;;7.76;100.00
59608;BME280;45426;44.726;10.390;2023-03-13T00:14:44;100782.50;;;6.93;100.00
59608;BME280;45426;44.726;10.390;2023-03-13T00:17:09;100785.56;;;6.72;100.00
59608;BME280;45426;44.726;10.390;2023-03-13T00:19:35;100784.22;;;6.04;100.00
59608;BME280;45426;44.726;10.390;2023-03-13T00:22:00;100781.94;;;6.63;100.00
59608;BME280;45426;44.726;10.390;2023-03-13T00:24:25;100775.38;;;7.38;100.00
59608;BME280;45426;44.726;10.390;2023-03-13T00:26:51;100777.50;;;7.28;100.00
59608;BME280;45426;44.726;10.390;2023-03-13T00:29:16;100773.50;;;7.89;100.00
59608;BME280;45426;44.726;10.390;2023-03-13T00:31:42;100771.97;;;7.97;100.00
59608;BME280;45426;44.726;10.390;2023-03-13T00:34:07;100778.00;;;7.30;100.00
59608;BME280;45426;44.726;10.390;2023-03-13T00:36:34;100788.28;;;6.86;100.00
59608;BME280;45426;44.726;10.390;2023-03-13T00:39:00;100780.88;;;6.78;100.00
59608;BME280;45426;44.726;10.390;2023-03-13T00:41:29;100783.53;;;6.31;100.00
59608;BME280;45426;44.726;10.390;2023-03-13T00:43:55;100790.94;;;6.07;100.00
59608;BME280;45426;44.726;10.390;2023-03-13T00:46:23;100789.63;;;6.23;100.00
59608;BME280;45426;44.726;10.390;2023-03-13T00:48:49;100782.78;;;6.45;100.00
59608;BME280;45426;44.726;10.390;2023-03-13T00:51:16;100787.06;;;6.65;100.00
59608;BME280;45426;44.726;10.390;2023-03-13T00:53:43;100776.84;;;6.29;100.00
59608;BME280;45426;44.726;10.390;2023-03-13T00:56:14;100782.63;;;6.55;100.00
59608;BME280;45426;44.726;10.390;2023-03-13T00:58:41;100778.09;;;7.25;100.00
59608;BME280;45426;44.726;10.390;2023-03-13T01:01:08;100773.97;;;7.69;100.00
59608;BME280;45426;44.726;10.390;2023-03-13T01:03:35;100763.75;;;7.66;100.00
59608;BME280;45426;44.726;10.390;2023-03-13T01:06:03;100766.09;;;7.31;100.00
59608;BME280;45426;44.726;10.390;2023-03-13T01:08:29;100761.66;;;7.85;100.00
59608;BME280;45426;44.726;10.390;2023-03-13T01:11:06;100743.19;;;8.01;100.00
59608;BME280;45426;44.726;10.390;2023-03-13T01:13:32;100751.56;;;7.27;100.00
59608;BME280;45426;44.726;10.390;2023-03-13T01:18:28;100754.63;;;6.18;100.00
59608;BME280;45426;44.726;10.390;2023-03-13T01:20:54;100750.41;;;6.12;100.00
59608;BME280;45426;44.726;10.390;2023-03-13T01:23:19;100751.28;;;6.07;100.00
59608;BME280;45426;44.726;10.390;2023-03-13T01:25:45;100755.09;;;6.06;100.00
59608;BME280;45426;44.726;10.390;2023-03-13T01:28:10;100759.16;;;6.03;100.00
59608;BME280;45426;44.726;10.390;2023-03-13T01:30:35;100761.81;;;6.41;100.00
59608;BME280;45426;44.726;10.390;2023-03-13T01:33:01;100766.38;;;5.46;100.00
59608;BME280;45426;44.726;10.390;2023-03-13T01:35:26;100767.44;;;5.88;100.00
59608;BME280;45426;44.726;10.390;2023-03-13T01:37:52;100753.00;;;6.17;100.00
59608;BME280;45426;44.726;10.390;2023-03-13T01:40:17;100750.75;;;6.71;100.00
59608;BME280;45426;44.726;10.390;2023-03-13T01:42:59;100737.41;;;6.47;100.00
59608;BME280;45426;44.726;10.390;2023-03-13T01:48:14;100738.66;;;6.21;100.00
59608;BME280;45426;44.726;10.390;2023-03-13T01:50:40;100737.53;;;6.69;100.00
59608;BME280;45426;44.726;10.390;2023-03-13T01:53:05;100743.06;;;6.92;100.00
59608;BME280;45426;44.726;10.390;2023-03-13T01:55:32;100750.03;;;6.65;100.00
59608;BME280;45426;44.726;10.390;2023-03-13T01:57:58;100749.88;;;6.89;100.00
59608;BME280;45426;44.726;10.390;2023-03-13T02:00:30;100748.38;;;6.97;100.00
59608;BME280;45426;44.726;10.390;2023-03-13T02:03:00;100746.63;;;6.59;100.00
59608;BME280;45426;44.726;10.390;2023-03-13T02:05:30;100746.47;;;7.11;100.00
59608;BME280;45426;44.726;10.390;2023-03-13T02:07:58;100732.94;;;7.89;100.00
59608;BME280;45426;44.726;10.390;2023-03-13T02:10:28;100729.88;;;7.68;100.00
59608;BME280;45426;44.726;10.390;2023-03-13T02:12:55;100732.41;;;7.87;100.00
59608;BME280;45426;44.726;10.390;2023-03-13T02:15:22;100738.66;;;7.24;100.00
59608;BME280;45426;44.726;10.390;2023-03-13T02:17:49;100735.16;;;6.68;100.00
59608;BME280;45426;44.726;10.390;2023-03-13T02:20:16;100730.16;;;6.61;100.00
59608;BME280;45426;44.726;10.390;2023-03-13T02:25:35;100718.34;;;7.26;100.00
59608;BME280;45426;44.726;10.390;2023-03-13T02:28:06;100718.41;;;7.49;100.00
59608;BME280;45426;44.726;10.390;2023-03-13T02:30:33;100717.09;;;7.46;100.00
59608;BME280;45426;44.726;10.390;2023-03-13T02:33:00;100722.06;;;7.67;100.00
59608;BME280;45426;44.726;10.390;2023-03-13T02:35:26;100718.53;;;8.03;100.00
59608;BME280;45426;44.726;10.390;2023-03-13T02:37:56;100707.34;;;7.95;100.00
59608;BME280;45426;44.726;10.390;2023-03-13T02:40:43;100711.38;;;8.29;100.00
59608;BME280;45426;44.726;10.390;2023-03-13T02:43:14;100696.19;;;8.73;100.00
59608;BME280;45426;44.726;10.390;2023-03-13T02:45:41;100707.22;;;8.54;100.00
59608;BME280;45426;44.726;10.390;2023-03-13T02:48:06;100695.03;;;8.12;100.00
59608;BME280;45426;44.726;10.390;2023-03-13T02:50:32;100697.72;;;8.57;100.00
59608;BME280;45426;44.726;10.390;2023-03-13T02:53:04;100703.31;;;8.69;100.00
59608;BME280;45426;44.726;10.390;2023-03-13T02:55:40;100690.91;;;8.77;100.00
59608;BME280;45426;44.726;10.390;2023-03-13T02:58:06;100707.38;;;8.49;100.00
59608;BME280;45426;44.726;10.390;2023-03-13T03:00:31;100709.19;;;7.86;100.00
59608;BME280;45426;44.726;10.390;2023-03-13T03:02:57;100721.59;;;7.87;100.00
59608;BME280;45426;44.726;10.390;2023-03-13T03:05:22;100720.69;;;7.55;100.00
59608;BME280;45426;44.726;10.390;2023-03-13T03:07:49;100725.69;;;7.62;100.00
59608;BME280;45426;44.726;10.390;2023-03-13T03:10:15;100729.97;;;6.99;100.00
59608;BME280;45426;44.726;10.390;2023-03-13T03:12:41;100726.22;;;7.50;100.00
59608;BME280;45426;44.726;10.390;2023-03-13T03:15:07;100728.53;;;7.43;100.00
59608;BME280;45426;44.726;10.390;2023-03-13T03:17:32;100722.50;;;7.46;100.00
59608;BME280;45426;44.726;10.390;2023-03-13T03:19:57;100720.13;;;7.81;100.00
59608;BME280;45426;44.726;10.390;2023-03-13T03:22:23;100711.09;;;8.08;100.00
59608;BME280;45426;44.726;10.390;2023-03-13T03:24:48;100714.69;;;7.81;100.00
59608;BME280;45426;44.726;10.390;2023-03-13T03:27:14;100720.78;;;8.09;100.00
59608;BME280;45426;44.726;10.390;2023-03-13T03:29:39;100720.38;;;8.16;100.00
59608;BME280;45426;44.726;10.390;2023-03-13T03:32:05;100716.00;;;8.29;100.00
59608;BME280;45426;44.726;10.390;2023-03-13T03:34:30;100708.31;;;8.00;100.00
59608;BME280;45426;44.726;10.390;2023-03-13T03:36:56;100720.00;;;7.86;100.00
59608;BME280;45426;44.726;10.390;2023-03-13T03:39:22;100719.84;;;7.32;100.00
59608;BME280;45426;44.726;10.390;2023-03-13T03:41:47;100725.56;;;7.17;100.00
59608;BME280;45426;44.726;10.390;2023-03-13T03:44:13;100721.69;;;7.60;100.00
59608;BME280;45426;44.726;10.390;2023-03-13T03:46:38;100733.19;;;7.15;100.00
59608;BME280;45426;44.726;10.390;2023-03-13T03:49:03;100744.31;;;7.64;100.00
59608;BME280;45426;44.726;10.390;2023-03-13T03:51:29;100744.47;;;7.81;100.00
59608;BME280;45426;44.726;10.390;2023-03-13T03:53:54;100747.94;;;7.45;100.00
59608;BME280;45426;44.726;10.390;2023-03-13T03:56:20;100748.84;;;6.71;100.00
59608;BME280;45426;44.726;10.390;2023-03-13T03:58:45;100746.34;;;7.44;100.00
59608;BME280;45426;44.726;10.390;2023-03-13T04:01:11;100757.41;;;7.70;100.00
59608;BME280;45426;44.726;10.390;2023-03-13T04:03:36;100757.84;;;7.64;100.00
59608;BME280;45426;44.726;10.390;2023-03-13T04:06:02;100754.88;;;7.24;100.00
59608;BME280;45426;44.726;10.390;2023-03-13T04:08:27;100755.19;;;7.22;100.00
59608;BME280;45426;44.726;10.390;2023-03-13T04:10:53;100764.59;;;7.11;100.00
59608;BME280;45426;44.726;10.390;2023-03-13T04:13:18;100760.25;;;7.51;100.00
59608;BME280;45426;44.726;10.390;2023-03-13T04:15:44;100757.22;;;7.67;100.00
59608;BME280;45426;44.726;10.390;2023-03-13T04:18:09;100759.59;;;7.04;100.00
59608;BME280;45426;44.726;10.390;2023-03-13T04:20:35;100764.75;;;6.73;100.00
59608;BME280;45426;44.726;10.390;2023-03-13T04:23:00;100768.53;;;6.58;100.00
59608;BME280;45426;44.726;10.390;2023-03-13T04:25:26;100764.78;;;7.28;100.00
59608;BME280;45426;44.726;10.390;2023-03-13T04:27:52;100755.34;;;6.70;100.00
59608;BME280;45426;44.726;10.390;2023-03-13T04:30:17;100770.72;;;6.56;100.00
59608;BME280;45426;44.726;10.390;2023-03-13T04:32:43;100766.88;;;6.10;100.00
59608;BME280;45426;44.726;10.390;2023-03-13T04:35:08;100770.41;;;6.44;100.00
59608;BME280;45426;44.726;10.390;2023-03-13T04:37:34;100772.78;;;6.92;100.00
59608;BME280;45426;44.726;10.390;2023-03-13T04:39:59;100786.00;;;6.47;100.00
59608;BME280;45426;44.726;10.390;2023-03-13T04:42:25;100779.25;;;6.63;100.00
59608;BME280;45426;44.726;10.390;2023-03-13T04:44:51;100776.59;;;6.91;100.00
59608;BME280;45426;44.726;10.390;2023-03-13T04:47:17;100780.91;;;7.19;100.00
59608;BME280;45426;44.726;10.390;2023-03-13T04:49:42;100784.38;;;7.62;100.00
59608;BME280;45426;44.726;10.390;2023-03-13T04:52:08;100795.84;;;7.81;100.00
59608;BME280;45426;44.726;10.390;2023-03-13T04:54:33;100796.81;;;7.35;100.00
59608;BME280;45426;44.726;10.390;2023-03-13T04:56:59;100802.00;;;7.73;100.00
59608;BME280;45426;44.726;10.390;2023-03-13T04:59:24;100798.94;;;7.88;100.00
59608;BME280;45426;44.726;10.390;2023-03-13T05:01:49;100802.22;;;7.35;100.00
59608;BME280;45426;44.726;10.390;2023-03-13T05:04:15;100793.44;;;7.93;100.00
59608;BME280;45426;44.726;10.390;2023-03-13T05:06:40;100805.63;;;7.27;100.00
59608;BME280;45426;44.726;10.390;2023-03-13T05:09:06;100813.97;;;6.70;100.00
59608;BME280;45426;44.726;10.390;2023-03-13T05:11:31;100816.59;;;6.23;100.00
59608;BME280;45426;44.726;10.390;2023-03-13T05:13:57;100812.69;;;6.48;100.00
59608;BME280;45426;44.726;10.390;2023-03-13T05:16:22;100815.91;;;6.83;100.00
59608;BME280;45426;44.726;10.390;2023-03-13T05:18:47;100803.09;;;7.44;100.00
59608;BME280;45426;44.726;10.390;2023-03-13T05:21:13;100794.91;;;7.49;100.00
59608;BME280;45426;44.726;10.390;2023-03-13T05:23:38;100786.69;;;7.54;100.00
59608;BME280;45426;44.726;10.390;2023-03-13T05:26:04;100784.03;;;7.77;100.00
59608;BME280;45426;44.726;10.390;2023-03-13T05:28:29;100788.50;;;7.17;100.00
59608;BME280;45426;44.726;10.390;2023-03-13T05:30:55;100800.69;;;6.73;100.00
59608;BME280;45426;44.726;10.390;2023-03-13T05:33:20;100793.38;;;6.88;100.00
59608;BME280;45426;44.726;10.390;2023-03-13T05:35:46;100803.50;;;6.49;100.00
59608;BME280;45426;44.726;10.390;2023-03-13T05:38:12;100813.91;;;7.03;100.00
59608;BME280;45426;44.726;10.390;2023-03-13T05:40:38;100812.81;;;7.73;100.00
59608;BME280;45426;44.726;10.390;2023-03-13T05:43:03;100812.34;;;7.43;100.00
59608;BME280;45426;44.726;10.390;2023-03-13T05:45:29;100811.44;;;7.98;100.00
59608;BME280;45426;44.726;10.390;2023-03-13T05:47:55;100814.94;;;7.34;100.00
59608;BME280;45426;44.726;10.390;2023-03-13T05:50:20;100819.94;;;8.05;100.00
59608;BME280;45426;44.726;10.390;2023-03-13T05:52:46;100819.75;;;8.02;100.00
59608;BME280;45426;44.726;10.390;2023-03-13T05:55:31;100830.97;;;8.09;100.00
59608;BME280;45426;44.726;10.390;2023-03-13T05:57:57;100830.69;;;7.96;100.00
59608;BME280;45426;44.726;10.390;2023-03-13T06:00:22;100834.91;;;8.25;100.00
59608;BME280;45426;44.726;10.390;2023-03-13T06:02:48;100840.84;;;7.77;100.00
59608;BME280;45426;44.726;10.390;2023-03-13T06:05:13;100839.66;;;8.20;100.00
59608;BME280;45426;44.726;10.390;2023-03-13T06:07:39;100828.25;;;7.45;100.00
59608;BME280;45426;44.726;10.390;2023-03-13T06:10:05;100825.84;;;7.43;100.00
59608;BME280;45426;44.726;10.390;2023-03-13T06:12:30;100836.50;;;6.93;100.00
59608;BME280;45426;44.726;10.390;2023-03-13T06:14:56;100841.97;;;6.74;100.00
59608;BME280;45426;44.726;10.390;2023-03-13T06:17:21;100835.66;;;7.11;100.00
59608;BME280;45426;44.726;10.390;2023-03-13T06:19:47;100824.03;;;7.25;100.00
59608;BME280;45426;44.726;10.390;2023-03-13T06:22:12;100822.34;;;7.15;100.00
59608;BME280;45426;44.726;10.390;2023-03-13T06:24:38;100826.84;;;7.06;100.00
59608;BME280;45426;44.726;10.390;2023-03-13T06:27:03;100822.31;;;7.01;100.00
59608;BME280;45426;44.726;10.390;2023-03-13T06:29:28;100821.03;;;7.54;100.00
59608;BME280;45426;44.726;10.390;2023-03-13T06:31:54;100817.91;;;8.47;100.00
59608;BME280;45426;44.726;10.390;2023-03-13T06:34:19;100814.78;;;8.85;100.00
59608;BME280;45426;44.726;10.390;2023-03-13T06:36:45;100816.00;;;8.70;100.00
59608;BME280;45426;44.726;10.390;2023-03-13T06:39:11;100796.47;;;10.32;100.00
59608;BME280;45426;44.726;10.390;2023-03-13T06:41:37;100781.66;;;12.04;100.00
59608;BME280;45426;44.726;10.390;2023-03-13T06:44:02;100781.69;;;9.37;100.00
59608;BME280;45426;44.726;10.390;2023-03-13T06:46:28;100790.88;;;11.02;100.00
59608;BME280;45426;44.726;10.390;2023-03-13T06:48:56;100793.63;;;11.82;100.00
59608;BME280;45426;44.726;10.390;2023-03-13T06:51:21;100791.91;;;12.99;100.00
59608;BME280;45426;44.726;10.390;2023-03-13T06:53:47;100797.59;;;13.18;100.00
59608;BME280;45426;44.726;10.390;2023-03-13T06:56:13;100800.69;;;13.42;100.00
59608;BME280;45426;44.726;10.390;2023-03-13T06:58:39;100797.59;;;11.94;100.00
59608;BME280;45426;44.726;10.390;2023-03-13T07:01:10;100807.19;;;13.49;100.00
59608;BME280;45426;44.726;10.390;2023-03-13T07:03:36;100809.16;;;12.45;100.00
59608;BME280;45426;44.726;10.390;2023-03-13T07:06:02;100809.09;;;13.73;100.00
59608;BME280;45426;44.726;10.390;2023-03-13T07:08:28;100803.34;;;16.49;100.00
59608;BME280;45426;44.726;10.390;2023-03-13T07:10:58;100816.63;;;16.70;100.00
59608;BME280;45426;44.726;10.390;2023-03-13T07:13:24;100806.31;;;18.84;100.00
59608;BME280;45426;44.726;10.390;2023-03-13T07:15:49;100818.03;;;16.60;100.00
59608;BME280;45426;44.726;10.390;2023-03-13T07:18:15;100810.53;;;18.78;100.00
59608;BME280;45426;44.726;10.390;2023-03-13T07:20:41;100810.72;;;18.96;100.00
59608;BME280;45426;44.726;10.390;2023-03-13T07:23:06;100819.09;;;15.94;100.00
59608;BME280;45426;44.726;10.390;2023-03-13T07:25:31;100803.69;;;18.61;100.00
59608;BME280;45426;44.726;10.390;2023-03-13T07:27:57;100793.44;;;18.58;100.00
59608;BME280;45426;44.726;10.390;2023-03-13T07:30:25;100797.19;;;18.05;100.00
59608;BME280;45426;44.726;10.390;2023-03-13T07:32:50;100798.06;;;17.56;100.00
59608;BME280;45426;44.726;10.390;2023-03-13T07:35:16;100788.88;;;18.35;100.00
59608;BME280;45426;44.726;10.390;2023-03-13T07:37:41;100794.44;;;16.56;100.00
59608;BME280;45426;44.726;10.390;2023-03-13T07:40:07;100807.00;;;16.57;100.00
59608;BME280;45426;44.726;10.390;2023-03-13T07:42:33;100806.19;;;15.27;100.00
59608;BME280;45426;44.726;10.390;2023-03-13T07:44:59;100812.63;;;15.50;100.00
59608;BME280;45426;44.726;10.390;2023-03-13T07:47:24;100805.22;;;14.43;100.00
59608;BME280;45426;44.726;10.390;2023-03-13T07:49:49;100803.25;;;16.45;100.00
59608;BME280;45426;44.726;10.390;2023-03-13T07:52:15;100804.56;;;17.44;100.00
59608;BME280;45426;44.726;10.390;2023-03-13T07:54:41;100806.47;;;19.06;100.00
59608;BME280;45426;44.726;10.390;2023-03-13T07:57:07;100798.25;;;20.70;100.00
59608;BME280;45426;44.726;10.390;2023-03-13T07:59:32;100807.38;;;21.18;100.00
59608;BME280;45426;44.726;10.390;2023-03-13T08:01:58;100810.78;;;18.62;100.00
59608;BME280;45426;44.726;10.390;2023-03-13T08:04:23;100819.72;;;17.61;100.00
59608;BME280;45426;44.726;10.390;2023-03-13T08:06:48;100812.88;;;17.78;100.00
59608;BME280;45426;44.726;10.390;2023-03-13T08:09:15;100814.56;;;18.13;100.00
59608;BME280;45426;44.726;10.390;2023-03-13T08:11:41;100808.13;;;20.75;100.00
59608;BME280;45426;44.726;10.390;2023-03-13T08:14:08;100817.91;;;17.72;100.00
59608;BME280;45426;44.726;10.390;2023-03-13T08:16:34;100818.16;;;16.05;100.00
59608;BME280;45426;44.726;10.390;2023-03-13T08:19:01;100812.16;;;17.27;100.00
59608;BME280;45426;44.726;10.390;2023-03-13T08:21:35;100813.66;;;16.56;100.00
59608;BME280;45426;44.726;10.390;2023-03-13T08:24:06;100808.50;;;16.31;100.00
59608;BME280;45426;44.726;10.390;2023-03-13T08:26:34;100802.69;;;16.79;100.00
59608;BME280;45426;44.726;10.390;2023-03-13T08:29:04;100830.03;;;14.94;100.00
59608;BME280;45426;44.726;10.390;2023-03-13T08:31:35;100819.78;;;16.49;100.00
59608;BME280;45426;44.726;10.390;2023-03-13T08:34:01;100819.13;;;16.56;100.00
59608;BME280;45426;44.726;10.390;2023-03-13T08:36:30;100815.63;;;18.04;100.00
59608;BME280;45426;44.726;10.390;2023-03-13T08:39:04;100832.22;;;17.32;100.00
59608;BME280;45426;44.726;10.390;2023-03-13T08:41:32;100825.28;;;16.92;100.00
59608;BME280;45426;44.726;10.390;2023-03-13T08:44:00;100841.38;;;15.76;100.00
59608;BME280;45426;44.726;10.390;2023-03-13T08:46:28;100835.34;;;15.70;100.00
59608;BME280;45426;44.726;10.390;2023-03-13T08:48:54;100835.94;;;15.60;100.00
59608;BME280;45426;44.726;10.390;2023-03-13T08:51:21;100834.16;;;17.04;100.00
59608;BME280;45426;44.726;10.390;2023-03-13T08:53:48;100830.19;;;17.52;100.00
59608;BME280;45426;44.726;10.390;2023-03-13T08:56:17;100815.16;;;19.11;100.00
59608;BME280;45426;44.726;10.390;2023-03-13T08:58:43;100818.66;;;19.60;100.00
59608;BME280;45426;44.726;10.390;2023-03-13T09:01:11;100822.81;;;18.84;100.00
59608;BME280;45426;44.726;10.390;2023-03-13T09:03:37;100815.25;;;19.22;100.00
59608;BME280;45426;44.726;10.390;2023-03-13T09:06:03;100812.13;;;21.13;100.00
59608;BME280;45426;44.726;10.390;2023-03-13T09:08:30;100825.22;;;18.52;100.00
59608;BME280;45426;44.726;10.390;2023-03-13T09:11:05;100811.84;;;18.88;100.00
59608;BME280;45426;44.726;10.390;2023-03-13T09:13:32;100821.72;;;17.91;100.00
59608;BME280;45426;44.726;10.390;2023-03-13T09:16:03;100818.44;;;18.46;100.00
59608;BME280;45426;44.726;10.390;2023-03-13T09:18:29;100819.50;;;18.71;100.00
59608;BME280;45426;44.726;10.390;2023-03-13T09:20:55;100805.47;;;19.28;100.00
59608;BME280;45426;44.726;10.390;2023-03-13T09:23:21;100806.44;;;19.02;100.00
59608;BME280;45426;44.726;10.390;2023-03-13T09:25:48;100813.63;;;18.01;100.00
59608;BME280;45426;44.726;10.390;2023-03-13T09:28:14;100814.47;;;18.39;100.00
59608;BME280;45426;44.726;10.390;2023-03-13T09:30:39;100809.84;;;18.47;100.00
59608;BME280;45426;44.726;10.390;2023-03-13T09:33:05;100798.66;;;19.11;100.00
59608;BME280;45426;44.726;10.390;2023-03-13T09:35:30;100808.81;;;17.95;100.00
59608;BME280;45426;44.726;10.390;2023-03-13T09:37:56;100819.72;;;17.34;100.00
59608;BME280;45426;44.726;10.390;2023-03-13T09:40:23;100819.84;;;16.53;100.00
59608;BME280;45426;44.726;10.390;2023-03-13T09:42:52;100814.66;;;15.89;100.00
59608;BME280;45426;44.726;10.390;2023-03-13T09:45:38;100805.16;;;16.41;100.00
59608;BME280;45426;44.726;10.390;2023-03-13T09:48:11;100806.13;;;16.53;100.00
59608;BME280;45426;44.726;10.390;2023-03-13T09:50:43;100803.66;;;16.67;100.00
59608;BME280;45426;44.726;10.390;2023-03-13T09:53:17;100803.41;;;16.53;100.00
59608;BME280;45426;44.726;10.390;2023-03-13T09:55:44;100804.53;;;17.97;100.00
59608;BME280;45426;44.726;10.390;2023-03-13T09:58:15;100813.94;;;17.43;100.00
59608;BME280;45426;44.726;10.390;2023-03-13T10:00:53;100811.31;;;17.50;100.00
59608;BME280;45426;44.726;10.390;2023-03-13T10:03:34;100813.81;;;17.09;100.00
59608;BME280;45426;44.726;10.390;2023-03-13T10:06:09;100819.84;;;17.18;100.00
59608;BME280;45426;44.726;10.390;2023-03-13T10:08:36;100803.91;;;17.01;100.00
59608;BME280;45426;44.726;10.390;2023-03-13T10:13:50;100791.75;;;16.17;100.00
59608;BME280;45426;44.726;10.390;2023-03-13T10:16:27;100795.19;;;16.14;100.00
59608;BME280;45426;44.726;10.390;2023-03-13T10:18:56;100797.16;;;16.75;100.00
59608;BME280;45426;44.726;10.390;2023-03-13T10:21:25;100802.88;;;16.66;100.00
59608;BME280;45426;44.726;10.390;2023-03-13T10:24:01;100793.97;;;16.50;100.00
59608;BME280;45426;44.726;10.390;2023-03-13T10:26:33;100800.72;;;15.11;100.00
59608;BME280;45426;44.726;10.390;2023-03-13T10:31:48;100791.94;;;16.90;100.00
59608;BME280;45426;44.726;10.390;2023-03-13T10:34:15;100779.50;;;17.76;100.00
59608;BME280;45426;44.726;10.390;2023-03-13T10:36:46;100774.06;;;16.34;100.00
59608;BME280;45426;44.726;10.390;2023-03-13T10:39:31;100772.03;;;17.19;100.00
59608;BME280;45426;44.726;10.390;2023-03-13T10:42:08;100776.69;;;17.42;100.00
59608;BME280;45426;44.726;10.390;2023-03-13T10:44:36;100787.97;;;17.37;100.00
59608;BME280;45426;44.726;10.390;2023-03-13T10:47:02;100772.34;;;18.32;100.00
59608;BME280;45426;44.726;10.390;2023-03-13T10:49:30;100774.56;;;18.56;100.00
59608;BME280;45426;44.726;10.390;2023-03-13T10:52:03;100785.88;;;18.14;100.00
59608;BME280;45426;44.726;10.390;2023-03-13T10:54:32;100793.34;;;17.83;100.00
59608;BME280;45426;44.726;10.390;2023-03-13T10:59:51;100774.84;;;17.00;100.00
59608;BME280;45426;44.726;10.390;2023-03-13T11:02:22;100781.94;;;17.01;100.00
59608;BME280;45426;44.726;10.390;2023-03-13T11:04:48;100767.22;;;18.30;100.00
59608;BME280;45426;44.726;10.390;2023-03-13T11:07:26;100778.00;;;17.82;100.00
59608;BME280;45426;44.726;10.390;2023-03-13T11:10:19;100775.72;;;17.04;100.00
59608;BME280;45426;44.726;10.390;2023-03-13T11:12:50;100771.31;;;16.34;100.00
59608;BME280;45426;44.726;10.390;2023-03-13T11:15:19;100759.56;;;16.33;100.00
59608;BME280;45426;44.726;10.390;2023-03-13T11:20:38;100755.75;;;17.34;100.00
59608;BME280;45426;44.726;10.390;2023-03-13T11:23:29;100751.09;;;17.11;100.00
59608;BME280;45426;44.726;10.390;2023-03-13T11:37:00;100723.13;;;17.85;100.00
59608;BME280;45426;44.726;10.390;2023-03-13T12:03:41;100707.84;;;18.70;100.00
59608;BME280;45426;44.726;10.390;2023-03-13T12:06:43;100709.06;;;17.60;100.00
59608;BME280;45426;44.726;10.390;2023-03-13T12:09:14;100695.56;;;18.16;100.00
59608;BME280;45426;44.726;10.390;2023-03-13T12:12:02;100696.91;;;17.95;100.00
59608;BME280;45426;44.726;10.390;2023-03-13T12:14:42;100693.34;;;17.31;100.00
59608;BME280;45426;44.726;10.390;2023-03-13T12:19:47;100680.75;;;17.60;100.00
59608;BME280;45426;44.726;10.390;2023-03-13T12:22:35;100662.03;;;18.40;100.00
59608;BME280;45426;44.726;10.390;2023-03-13T12:25:17;100649.38;;;18.32;100.00
59608;BME280;45426;44.726;10.390;2023-03-13T12:27:49;100641.81;;;18.22;100.00
59608;BME280;45426;44.726;10.390;2023-03-13T12:30:45;100648.47;;;18.21;100.00
59608;BME280;45426;44.726;10.390;2023-03-13T12:33:25;100649.28;;;16.66;100.00
59608;BME280;45426;44.726;10.390;2023-03-13T12:36:03;100651.69;;;17.89;100.00
59608;BME280;45426;44.726;10.390;2023-03-13T12:38:49;100637.56;;;16.96;100.00
59608;BME280;45426;44.726;10.390;2023-03-13T12:41:23;100619.88;;;17.54;100.00
59608;BME280;45426;44.726;10.390;2023-03-13T12:43:51;100615.94;;;17.52;100.00
59608;BME280;45426;44.726;10.390;2023-03-13T12:47:06;100609.50;;;17.74;100.00
59608;BME280;45426;44.726;10.390;2023-03-13T12:49:51;100602.56;;;17.50;100.00
59608;BME280;45426;44.726;10.390;2023-03-13T12:52:28;100595.34;;;17.72;100.00
59608;BME280;45426;44.726;10.390;2023-03-13T13:00:34;100580.00;;;17.34;100.00
59608;BME280;45426;44.726;10.390;2023-03-13T13:03:09;100589.66;;;16.63;100.00
59608;BME280;45426;44.726;10.390;2023-03-13T13:05:58;100581.00;;;16.35;100.00
59608;BME280;45426;44.726;10.390;2023-03-13T13:08:25;100558.13;;;17.07;100.00
59608;BME280;45426;44.726;10.390;2023-03-13T13:10:51;100557.09;;;17.53;100.00
59608;BME280;45426;44.726;10.390;2023-03-13T13:13:24;100551.75;;;16.99;100.00
59608;BME280;45426;44.726;10.390;2023-03-13T13:16:00;100547.03;;;17.68;100.00
59608;BME280;45426;44.726;10.390;2023-03-13T13:18:31;100537.47;;;17.54;100.00
59608;BME280;45426;44.726;10.390;2023-03-13T13:36:57;100546.88;;;16.85;100.00
59608;BME280;45426;44.726;10.390;2023-03-13T13:39:44;100553.69;;;17.66;100.00
59608;BME280;45426;44.726;10.390;2023-03-13T13:47:28;100536.19;;;17.82;100.00
59608;BME280;45426;44.726;10.390;2023-03-13T13:49:57;100538.41;;;18.10;100.00
59608;BME280;45426;44.726;10.390;2023-03-13T13:52:38;100545.75;;;18.47;100.00
59608;BME280;45426;44.726;10.390;2023-03-13T13:58:04;100534.69;;;18.40;100.00
59608;BME280;45426;44.726;10.390;2023-03-13T14:01:13;100555.81;;;18.25;100.00
59608;BME280;45426;44.726;10.390;2023-03-13T14:03:21;100537.47;;;17.92;100.00
59608;BME280;45426;44.726;10.390;2023-03-13T14:05:51;100544.72;;;17.32;100.00
59608;BME280;45426;44.726;10.390;2023-03-13T14:08:36;100540.63;;;17.90;100.00